createdAt,value
2023-03-31T00:01:29.684Z,1.50
2023-03-31T00:04:04.971Z,1.67
2023-03-31T00:06:38.256Z,1.88
2023-03-31T00:09:09.579Z,2.45
2023-03-31T00:11:40.627Z,2.63
2023-03-31T00:14:11.106Z,2.03
2023-03-31T00:16:40.758Z,1.45
2023-03-31T00:19:18.394Z,1.35
2023-03-31T00:21:48.568Z,2.00
2023-03-31T00:24:17.486Z,1.95
2023-03-31T00:26:46.588Z,1.08
2023-03-31T00:29:16.543Z,2.45
2023-03-31T00:31:45.114Z,2.03
2023-03-31T00:34:13.681Z,1.55
2023-03-31T00:36:45.998Z,1.95
2023-03-31T00:39:16.275Z,1.10
2023-03-31T00:41:44.884Z,2.85
2023-03-31T00:44:19.230Z,2.00
2023-03-31T00:46:53.571Z,2.40
2023-03-31T00:49:28.452Z,2.10
2023-03-31T00:52:02.414Z,1.95
2023-03-31T00:54:34.671Z,2.00
2023-03-31T00:57:06.922Z,1.65
2023-03-31T00:59:41.859Z,1.80
2023-03-31T01:02:11.547Z,2.08
2023-03-31T01:04:44.847Z,1.08
2023-03-31T01:07:33.435Z,2.30
2023-03-31T01:10:05.243Z,2.15
2023-03-31T01:12:35.497Z,2.05
2023-03-31T01:15:07.518Z,2.05
2023-03-31T01:17:37.131Z,3.25
2023-03-31T01:20:19.407Z,3.20
2023-03-31T01:23:23.490Z,2.00
2023-03-31T01:26:40.066Z,1.58
2023-03-31T01:29:19.030Z,2.45
2023-03-31T01:32:30.050Z,2.40
2023-03-31T01:35:28.885Z,1.90
2023-03-31T01:38:36.025Z,2.70
2023-03-31T01:41:26.255Z,0.95
2023-03-31T01:44:08.362Z,1.83
2023-03-31T01:46:40.778Z,0.90
2023-03-31T01:49:19.005Z,2.90
2023-03-31T01:51:56.911Z,1.52
2023-03-31T01:54:33.045Z,1.77
2023-03-31T02:18:41.929Z,1.42
2023-03-31T02:21:13.524Z,1.17
2023-03-31T02:23:42.968Z,3.05
2023-03-31T02:26:15.719Z,1.42
2023-03-31T02:28:45.124Z,1.20
2023-03-31T02:31:25.704Z,1.33
2023-03-31T02:46:58.959Z,1.73
2023-03-31T02:49:27.564Z,2.58
2023-03-31T02:52:33.611Z,2.33
2023-03-31T02:55:30.785Z,1.25
2023-03-31T02:58:35.593Z,1.63
2023-03-31T03:01:28.171Z,0.90
2023-03-31T03:04:09.597Z,2.60
2023-03-31T03:06:46.398Z,1.10
2023-03-31T03:09:33.767Z,1.70
2023-03-31T03:12:12.225Z,2.35
2023-03-31T03:14:48.596Z,1.65
2023-03-31T03:17:23.720Z,1.40
2023-03-31T03:19:56.296Z,1.77
2023-03-31T03:22:25.060Z,2.28
2023-03-31T03:24:53.732Z,1.50
2023-03-31T03:27:23.963Z,1.45
2023-03-31T03:29:53.156Z,1.52
2023-03-31T03:32:21.722Z,1.40
2023-03-31T03:34:50.396Z,2.03
2023-03-31T03:37:20.419Z,1.88
2023-03-31T03:39:49.020Z,1.27
2023-03-31T03:42:17.999Z,1.45
2023-03-31T03:44:46.534Z,1.48
2023-03-31T03:47:15.645Z,1.83
2023-03-31T03:49:44.230Z,2.20
2023-03-31T03:52:12.799Z,1.50
2023-03-31T03:54:42.733Z,1.42
2023-03-31T03:57:11.459Z,1.35
2023-03-31T03:59:40.035Z,1.35
2023-03-31T04:02:08.755Z,2.13
2023-03-31T04:04:37.402Z,2.08
2023-03-31T04:07:06.302Z,2.13
2023-03-31T04:09:34.878Z,1.38
2023-03-31T04:12:05.300Z,2.28
2023-03-31T04:14:33.863Z,2.05
2023-03-31T04:17:02.752Z,2.05
2023-03-31T04:19:31.322Z,2.08
2023-03-31T04:22:02.994Z,3.92
2023-03-31T04:24:33.256Z,2.10
2023-03-31T04:27:03.312Z,1.80
2023-03-31T04:29:33.931Z,1.48
2023-03-31T04:32:02.985Z,3.20
2023-03-31T04:34:36.112Z,3.08
2023-03-31T04:37:05.212Z,2.13
2023-03-31T04:39:33.854Z,1.65
2023-03-31T04:42:02.959Z,1.35
2023-03-31T04:44:32.917Z,2.13
2023-03-31T04:47:03.338Z,1.88
2023-03-31T04:49:33.708Z,2.50
2023-03-31T04:52:02.349Z,2.75
2023-03-31T04:54:31.013Z,1.85
2023-03-31T04:56:59.577Z,3.35
2023-03-31T04:59:28.173Z,2.22
2023-03-31T05:01:58.244Z,2.00
2023-03-31T05:04:26.808Z,3.75
2023-03-31T05:06:55.627Z,3.58
2023-03-31T05:09:24.307Z,1.55
2023-03-31T05:31:13.086Z,2.45
2023-03-31T05:33:42.415Z,1.88
2023-03-31T05:36:13.125Z,3.33
2023-03-31T05:38:42.183Z,2.05
2023-03-31T05:41:12.157Z,1.88
2023-03-31T05:43:40.964Z,1.90
2023-03-31T05:46:09.786Z,2.00
2023-03-31T05:48:40.053Z,3.15
2023-03-31T05:51:08.710Z,2.45
2023-03-31T05:53:37.702Z,1.95
2023-03-31T05:56:08.119Z,2.17
2023-03-31T05:58:37.879Z,2.30
2023-03-31T06:01:08.571Z,3.83
2023-03-31T06:03:41.360Z,2.03
2023-03-31T06:06:13.172Z,1.52
2023-03-31T06:08:42.445Z,2.40
2023-03-31T06:11:13.570Z,3.40
2023-03-31T06:13:43.027Z,2.00
2023-03-31T06:16:13.166Z,1.92
2023-03-31T06:18:43.658Z,2.13
2023-03-31T06:21:16.425Z,2.47
2023-03-31T06:23:45.723Z,3.03
2023-03-31T06:26:16.190Z,3.47
2023-03-31T06:28:45.113Z,2.10
2023-03-31T06:31:15.229Z,2.95
2023-03-31T06:33:45.789Z,1.27
2023-03-31T06:36:16.505Z,1.40
2023-03-31T06:38:45.311Z,2.75
2023-03-31T06:41:15.516Z,2.25
2023-03-31T06:43:44.545Z,3.05
2023-03-31T06:46:13.725Z,2.35
2023-03-31T06:48:42.961Z,2.65
2023-03-31T06:51:14.172Z,2.10
2023-03-31T06:53:42.834Z,3.70
2023-03-31T06:56:11.711Z,3.10
2023-03-31T06:58:40.327Z,2.55
2023-03-31T07:01:09.089Z,2.80
2023-03-31T07:03:38.012Z,3.20
2023-03-31T07:06:07.233Z,2.75
2023-03-31T07:08:37.160Z,2.00
2023-03-31T07:11:06.340Z,2.45
2023-03-31T07:13:35.194Z,3.25
2023-03-31T07:16:05.236Z,3.10
2023-03-31T07:18:35.500Z,2.60
2023-03-31T07:21:09.443Z,2.28
2023-03-31T07:23:40.451Z,2.65
2023-03-31T07:26:09.179Z,2.63
2023-03-31T07:28:37.768Z,2.28
2023-03-31T07:31:13.216Z,3.22
2023-03-31T07:33:41.965Z,3.03
2023-03-31T07:36:13.808Z,2.38
2023-03-31T07:38:49.030Z,3.13
2023-03-31T07:41:19.599Z,2.47
2023-03-31T07:43:48.846Z,2.60
2023-03-31T07:46:20.159Z,3.35
2023-03-31T07:48:49.226Z,2.20
2023-03-31T07:51:19.812Z,2.35
2023-03-31T07:53:52.349Z,2.75
2023-03-31T07:56:21.866Z,3.13
2023-03-31T07:58:51.261Z,2.58
2023-03-31T08:01:21.837Z,2.65
2023-03-31T08:03:52.708Z,1.60
2023-03-31T08:06:23.826Z,3.00
2023-03-31T08:08:54.009Z,2.45
2023-03-31T08:11:22.602Z,2.67
2023-03-31T08:13:51.177Z,2.90
2023-03-31T08:16:20.073Z,3.15
2023-03-31T08:18:48.895Z,2.95
2023-03-31T08:21:17.530Z,3.28
2023-03-31T08:23:46.108Z,2.90
2023-03-31T08:26:18.542Z,2.63
2023-03-31T08:28:48.883Z,2.75
2023-03-31T08:31:19.219Z,3.85
2023-03-31T08:33:48.185Z,2.67
2023-03-31T08:36:16.926Z,1.98
2023-03-31T08:38:48.128Z,1.75
2023-03-31T08:41:35.298Z,1.08
2023-03-31T08:44:10.033Z,1.55
2023-03-31T08:46:41.243Z,1.77
2023-03-31T08:49:15.005Z,1.10
2023-03-31T08:51:48.797Z,2.15
2023-03-31T08:54:21.858Z,1.10
2023-03-31T08:56:53.908Z,2.38
2023-03-31T08:59:28.556Z,1.17
2023-03-31T09:02:06.299Z,0.80
2023-03-31T09:05:05.936Z,1.40
2023-03-31T09:07:42.109Z,2.13
2023-03-31T09:10:24.592Z,1.52
2023-03-31T09:12:58.993Z,1.48
2023-03-31T09:15:30.185Z,1.77
2023-03-31T09:18:04.977Z,1.35
2023-03-31T09:20:38.211Z,1.30
2023-03-31T09:23:14.889Z,1.30
2023-03-31T09:25:46.083Z,2.75
2023-03-31T09:28:22.012Z,1.42
2023-03-31T09:30:51.166Z,1.15
2023-03-31T09:33:21.280Z,1.17
2023-03-31T09:35:52.222Z,0.82
2023-03-31T09:38:20.999Z,2.42
2023-03-31T09:40:49.893Z,1.15
2023-03-31T09:43:24.422Z,1.17
2023-03-31T09:46:08.743Z,0.80
2023-03-31T09:48:40.315Z,0.70
2023-03-31T09:51:15.981Z,1.20
2023-03-31T09:53:50.089Z,0.90
2023-03-31T09:56:34.785Z,0.75
2023-03-31T09:59:05.438Z,1.25
2023-03-31T10:01:36.751Z,0.40
2023-03-31T10:04:09.921Z,0.70
2023-03-31T10:06:43.471Z,0.82
2023-03-31T10:09:13.046Z,1.45
2023-03-31T10:11:52.470Z,0.80
2023-03-31T10:14:27.670Z,0.73
2023-03-31T10:16:58.988Z,0.80
2023-03-31T10:19:29.652Z,0.75
2023-03-31T10:22:00.210Z,0.75
2023-03-31T10:24:38.700Z,0.40
2023-03-31T10:27:22.399Z,0.60
2023-03-31T10:29:55.679Z,0.93
2023-03-31T10:32:29.059Z,0.38
2023-03-31T10:34:59.186Z,0.80
2023-03-31T10:37:30.235Z,0.70
2023-03-31T10:40:00.482Z,1.23
2023-03-31T10:42:29.622Z,0.50
2023-03-31T10:45:26.286Z,0.68
2023-03-31T10:48:01.314Z,0.40
2023-03-31T10:50:32.526Z,0.45
2023-03-31T10:53:05.763Z,0.43
2023-03-31T10:55:41.135Z,0.55
2023-03-31T10:58:23.352Z,0.13
2023-03-31T11:01:06.996Z,0.30
2023-03-31T11:04:00.636Z,1.55
2023-03-31T11:06:36.020Z,0.70
2023-03-31T11:09:18.704Z,0.50
2023-03-31T11:11:59.424Z,0.40
2023-03-31T11:14:38.137Z,0.55
2023-03-31T11:17:19.840Z,0.40
2023-03-31T11:19:57.240Z,0.20
2023-03-31T11:22:32.642Z,1.33
2023-03-31T11:25:25.305Z,0.45
2023-03-31T11:28:42.914Z,1.00
2023-03-31T11:31:25.060Z,0.30
2023-03-31T11:34:10.827Z,0.43
2023-03-31T11:36:52.547Z,1.48
2023-03-31T11:39:33.054Z,0.20
2023-03-31T11:42:05.472Z,0.75
2023-03-31T11:44:43.144Z,0.20
2023-03-31T11:47:18.309Z,0.40
2023-03-31T11:49:53.248Z,0.75
2023-03-31T11:52:26.414Z,0.75
2023-03-31T11:54:59.065Z,0.77
2023-03-31T11:57:33.236Z,0.45
2023-03-31T12:00:09.289Z,0.30
2023-03-31T12:02:46.702Z,0.30
2023-03-31T12:05:19.138Z,0.68
2023-03-31T12:07:54.904Z,0.88
2023-03-31T12:10:30.778Z,0.52
2023-03-31T12:13:06.616Z,0.82
2023-03-31T12:15:40.733Z,0.38
2023-03-31T12:18:14.727Z,0.52
2023-03-31T12:20:49.118Z,0.98
2023-03-31T12:23:21.804Z,0.32
2023-03-31T12:25:57.266Z,1.58
2023-03-31T12:28:28.168Z,0.30
2023-03-31T12:30:58.494Z,0.93
2023-03-31T12:33:31.813Z,0.95
2023-03-31T12:36:17.536Z,0.63
2023-03-31T12:38:59.200Z,0.50
2023-03-31T12:41:38.091Z,0.80
2023-03-31T12:44:18.758Z,0.52
2023-03-31T12:47:10.183Z,0.95
2023-03-31T12:49:52.087Z,1.33
2023-03-31T12:52:28.008Z,1.05
2023-03-31T12:55:11.012Z,0.63
2023-03-31T12:57:41.608Z,0.63
2023-03-31T13:00:25.590Z,1.23
2023-03-31T13:03:27.439Z,0.40
2023-03-31T13:05:56.081Z,1.30
2023-03-31T13:08:58.088Z,0.40
2023-03-31T13:11:39.996Z,3.03
2023-03-31T13:14:18.069Z,0.60
2023-03-31T13:16:47.321Z,1.17
2023-03-31T13:19:29.227Z,1.15
2023-03-31T13:21:59.735Z,1.25
2023-03-31T13:24:31.263Z,0.85
2023-03-31T13:27:03.216Z,0.77
2023-03-31T13:29:42.903Z,1.15
2023-03-31T13:32:22.404Z,0.40
2023-03-31T13:35:15.307Z,0.65
2023-03-31T13:38:03.944Z,0.93
2023-03-31T13:40:53.477Z,1.27
2023-03-31T13:43:43.867Z,2.22
2023-03-31T13:46:33.880Z,0.68
2023-03-31T13:49:11.607Z,0.73
2023-03-31T13:51:54.774Z,0.60
2023-03-31T13:54:52.526Z,1.20
2023-03-31T13:57:37.158Z,0.85
2023-03-31T14:00:31.621Z,1.83
2023-03-31T14:03:27.249Z,2.03
2023-03-31T14:06:00.905Z,0.60
2023-03-31T14:08:41.185Z,1.83
2023-03-31T14:11:22.824Z,1.52
2023-03-31T14:14:13.633Z,1.00
2023-03-31T14:16:46.538Z,0.93
2023-03-31T14:19:31.178Z,2.15
2023-03-31T14:22:12.489Z,1.73
2023-03-31T14:24:50.859Z,2.83
2023-03-31T14:27:32.462Z,1.70
2023-03-31T14:30:09.609Z,2.42
2023-03-31T14:32:45.984Z,2.15
2023-03-31T14:44:57.625Z,3.30
2023-03-31T14:47:29.974Z,2.70
2023-03-31T14:50:05.151Z,2.63
2023-03-31T14:52:35.915Z,2.47
2023-03-31T14:55:04.742Z,2.50
2023-03-31T14:57:36.354Z,2.08
2023-03-31T15:00:08.567Z,3.05
2023-03-31T15:02:42.514Z,3.53
2023-03-31T15:05:20.113Z,1.67
2023-03-31T15:07:49.982Z,1.40
2023-03-31T15:10:21.858Z,1.63
2023-03-31T15:12:51.352Z,2.85
2023-03-31T15:15:21.340Z,1.70
2023-03-31T15:17:53.159Z,1.52
2023-03-31T15:20:31.950Z,1.63
2023-03-31T15:23:06.809Z,2.05
2023-03-31T15:25:39.353Z,1.20
2023-03-31T15:28:11.832Z,2.88
2023-03-31T15:30:40.721Z,0.90
2023-03-31T15:33:21.094Z,2.38
2023-03-31T15:35:50.765Z,1.05
2023-03-31T15:38:19.688Z,2.25
2023-03-31T15:40:54.385Z,1.05
2023-03-31T15:43:31.066Z,0.90
2023-03-31T15:46:00.646Z,1.30
2023-03-31T15:48:34.420Z,1.70
2023-03-31T15:51:06.479Z,1.23
2023-03-31T15:53:39.327Z,0.88
2023-03-31T15:56:08.438Z,1.40
2023-03-31T15:58:56.442Z,0.90
2023-03-31T16:01:29.511Z,1.75
2023-03-31T16:03:59.926Z,0.65
2023-03-31T16:06:43.633Z,1.35
2023-03-31T16:09:15.396Z,0.80
2023-03-31T16:11:46.556Z,1.33
2023-03-31T16:14:20.130Z,1.25
2023-03-31T16:16:51.986Z,0.90
2023-03-31T16:19:25.191Z,1.27
2023-03-31T16:21:55.958Z,0.63
2023-03-31T16:24:32.085Z,0.80
2023-03-31T16:27:06.518Z,1.75
2023-03-31T16:29:37.120Z,2.30
2023-03-31T16:32:11.120Z,2.15
2023-03-31T16:34:56.126Z,1.58
2023-03-31T16:37:25.338Z,1.27
2023-03-31T16:39:54.222Z,0.80
2023-03-31T16:42:23.080Z,0.98
2023-03-31T16:45:09.589Z,1.10
2023-03-31T16:47:43.610Z,1.65
2023-03-31T16:50:15.814Z,1.85
2023-03-31T16:52:45.495Z,2.03
2023-03-31T16:55:14.207Z,1.85
2023-03-31T16:57:42.830Z,1.60
2023-03-31T17:00:13.042Z,2.42
2023-03-31T17:02:41.704Z,3.22
2023-03-31T17:05:13.491Z,2.60
2023-03-31T17:07:43.994Z,1.92
2023-03-31T17:10:13.523Z,2.25
2023-03-31T17:12:42.111Z,1.70
2023-03-31T17:15:12.118Z,1.95
2023-03-31T17:17:40.739Z,2.33
2023-03-31T17:20:11.036Z,1.80
2023-03-31T17:22:41.309Z,2.85
2023-03-31T17:25:11.628Z,1.92
2023-03-31T17:27:41.143Z,2.25
2023-03-31T17:30:10.863Z,3.65
2023-03-31T17:32:40.169Z,2.33
2023-03-31T17:35:10.442Z,2.88
2023-03-31T17:37:39.254Z,2.38
2023-03-31T17:40:11.135Z,2.55
2023-03-31T17:42:40.784Z,4.55
2023-03-31T17:45:11.695Z,2.38
2023-03-31T17:47:40.342Z,1.45
2023-03-31T17:50:09.940Z,3.88
2023-03-31T17:52:39.165Z,5.38
2023-03-31T17:55:08.381Z,1.95
2023-03-31T17:57:40.392Z,3.03
2023-03-31T18:00:10.773Z,3.55
2023-03-31T18:02:39.849Z,3.45
2023-03-31T18:05:09.578Z,3.92
2023-03-31T18:07:39.705Z,2.60
2023-03-31T18:10:10.036Z,3.03
2023-03-31T18:12:40.023Z,4.25
2023-03-31T18:15:10.974Z,2.63
2023-03-31T18:17:39.592Z,3.60
2023-03-31T18:20:10.005Z,3.05
2023-03-31T18:22:38.679Z,3.75
2023-03-31T18:25:08.616Z,3.67
2023-03-31T18:27:37.791Z,3.92
2023-03-31T18:30:09.257Z,3.25
2023-03-31T18:32:38.680Z,2.83
2023-03-31T18:35:08.196Z,3.35
2023-03-31T18:37:36.858Z,4.38
2023-03-31T18:40:06.109Z,4.63
2023-03-31T18:42:34.758Z,4.43
2023-03-31T18:45:03.754Z,2.72
2023-03-31T18:47:33.916Z,4.28
2023-03-31T18:50:03.205Z,3.25
2023-03-31T18:52:32.415Z,3.03
2023-03-31T18:55:00.956Z,3.47
2023-03-31T18:57:29.948Z,2.67
2023-03-31T18:59:58.636Z,3.10
2023-03-31T19:02:27.610Z,3.20
2023-03-31T19:04:57.929Z,3.70
2023-03-31T19:07:26.710Z,3.90
2023-03-31T19:09:55.268Z,5.82
2023-03-31T19:12:23.812Z,6.53
2023-03-31T19:14:52.620Z,6.20
2023-03-31T19:17:21.479Z,5.22
2023-03-31T19:19:50.351Z,5.45
2023-03-31T19:22:20.559Z,5.60
2023-03-31T19:24:49.177Z,3.85
2023-03-31T19:27:17.824Z,5.65
2023-03-31T19:29:46.538Z,2.60
2023-03-31T19:32:15.181Z,4.47
2023-03-31T19:34:45.535Z,4.45
2023-03-31T19:37:14.215Z,2.47
2023-03-31T19:39:44.662Z,1.73
2023-03-31T19:42:13.299Z,3.50
2023-03-31T19:44:41.896Z,1.73
2023-03-31T19:47:11.290Z,1.92
2023-03-31T19:49:40.037Z,1.80
2023-03-31T19:52:08.645Z,2.40
2023-03-31T19:54:37.384Z,1.75
2023-03-31T19:57:08.991Z,1.45
2023-03-31T19:59:37.791Z,1.92
2023-03-31T20:02:07.101Z,2.47
2023-03-31T20:04:37.058Z,1.35
2023-03-31T20:07:05.699Z,1.30
2023-03-31T20:09:34.609Z,1.70
2023-03-31T20:12:03.299Z,1.58
2023-03-31T20:14:33.364Z,1.45
2023-03-31T20:17:03.318Z,2.95
2023-03-31T20:19:31.943Z,1.33
2023-03-31T20:22:00.572Z,1.48
2023-03-31T20:24:29.628Z,1.70
2023-03-31T20:26:59.231Z,2.33
2023-03-31T20:29:27.784Z,2.20
2023-03-31T20:31:57.764Z,1.80
2023-03-31T20:34:27.673Z,1.45
2023-03-31T20:36:56.541Z,1.88
2023-03-31T20:39:25.076Z,0.93
2023-03-31T20:41:55.216Z,0.95
2023-03-31T20:44:23.860Z,0.85
2023-03-31T20:46:52.581Z,1.88
2023-03-31T20:49:22.637Z,1.27
2023-03-31T20:51:51.186Z,0.98
2023-03-31T20:54:19.857Z,1.60
2023-03-31T20:56:48.427Z,1.10
2023-03-31T20:59:17.326Z,1.88
2023-03-31T21:01:47.936Z,1.50
2023-03-31T21:04:25.500Z,0.70
2023-03-31T21:06:54.016Z,1.08
2023-03-31T21:09:24.037Z,1.00
2023-03-31T21:11:52.943Z,0.90
2023-03-31T21:14:21.906Z,0.90
2023-03-31T21:16:50.555Z,0.90
2023-03-31T21:19:31.927Z,1.30
2023-03-31T21:22:00.553Z,0.90
2023-03-31T21:24:29.126Z,1.35
2023-03-31T21:26:57.788Z,2.60
2023-03-31T21:29:26.325Z,1.50
2023-03-31T21:31:55.020Z,1.05
2023-03-31T21:34:23.774Z,1.60
2023-03-31T21:36:54.070Z,1.55
2023-03-31T21:39:22.587Z,2.65
2023-03-31T21:41:51.260Z,0.93
2023-03-31T21:44:19.812Z,0.70
2023-03-31T21:46:48.371Z,0.80
2023-03-31T21:49:17.480Z,1.65
2023-03-31T21:51:47.371Z,1.02
2023-03-31T21:54:17.341Z,0.70
2023-03-31T21:56:45.929Z,0.93
2023-03-31T21:59:14.517Z,0.82
2023-03-31T22:01:43.197Z,1.15
2023-03-31T22:04:13.384Z,1.85
2023-03-31T22:06:42.133Z,0.90
2023-03-31T22:09:10.837Z,1.17
2023-03-31T22:11:40.803Z,1.35
2023-03-31T22:14:09.425Z,1.13
2023-03-31T22:16:38.038Z,1.58
2023-03-31T22:19:07.019Z,1.25
2023-03-31T22:21:43.867Z,2.25
2023-03-31T22:24:13.721Z,1.10
2023-03-31T22:26:43.770Z,1.23
2023-03-31T22:29:15.988Z,1.35
2023-03-31T22:31:44.605Z,0.70
2023-03-31T22:34:13.206Z,0.98
2023-03-31T22:36:42.037Z,1.52
2023-03-31T22:39:10.796Z,1.15
2023-03-31T22:41:39.371Z,1.25
2023-03-31T22:44:10.027Z,1.23
2023-03-31T22:46:39.582Z,2.65
2023-03-31T22:49:08.407Z,0.90
2023-03-31T22:51:37.233Z,1.63
2023-03-31T22:54:05.980Z,1.30
2023-03-31T22:56:34.721Z,1.25
2023-03-31T22:59:03.323Z,2.65
2023-03-31T23:01:33.360Z,1.35
2023-03-31T23:04:02.560Z,1.08
2023-03-31T23:06:32.318Z,0.85
2023-03-31T23:09:03.157Z,1.10
2023-03-31T23:11:31.779Z,1.00
2023-03-31T23:14:00.369Z,0.77
2023-03-31T23:16:28.932Z,0.93
2023-03-31T23:18:58.899Z,1.55
2023-03-31T23:21:29.422Z,1.13
2023-03-31T23:24:01.209Z,1.25
2023-03-31T23:26:31.889Z,1.33
2023-03-31T23:29:00.628Z,1.52
2023-03-31T23:31:31.102Z,1.15
2023-03-31T23:34:01.829Z,1.30
2023-03-31T23:36:31.227Z,1.48
2023-03-31T23:39:00.534Z,1.60
2023-03-31T23:41:29.130Z,1.73
2023-03-31T23:43:57.946Z,1.52
2023-03-31T23:46:27.056Z,0.77
2023-03-31T23:48:55.881Z,0.95
